Time;durP1;ratioP1;P1;durP2;ratioP2;P2;SDS_P1;SDS_P2;PMS_P1;PMS_P2;Temp;Humidity;BMP_temperature;BMP_pressure;BME280_temperature;BME280_humidity;BME280_pressure;Samples;Min_cycle;Max_cycle;Signal;HPM_P1;HPM_P2
2023/09/09 00:01:30;;;;;;;7.32;6.30;;;;;;;16.75;84.11;101640.69;4877137;28;20047;-73
2023/09/09 00:03:56;;;;;;;7.28;6.57;;;;;;;16.71;84.15;101636.94;4899954;28;20039;-72
2023/09/09 00:06:22;;;;;;;9.20;7.32;;;;;;;16.72;83.95;101637.72;4913688;28;20038;-73
2023/09/09 00:08:48;;;;;;;8.60;7.35;;;;;;;16.69;84.94;101635.59;4885361;28;20050;-71
2023/09/09 00:11:13;;;;;;;7.82;6.72;;;;;;;16.67;84.66;101637.78;4901649;28;20043;-71
2023/09/09 00:13:39;;;;;;;7.70;6.85;;;;;;;16.65;84.44;101638.84;4914698;28;20090;-71
2023/09/09 00:16:05;;;;;;;7.38;6.40;;;;;;;16.62;84.58;101636.75;4928437;28;20934;-72
2023/09/09 00:18:31;;;;;;;8.48;6.88;;;;;;;16.59;85.32;101640.00;4909553;29;20051;-73
2023/09/09 00:20:56;;;;;;;10.82;6.45;;;;;;;16.56;85.29;101632.47;4910189;29;20421;-72
2023/09/09 00:23:22;;;;;;;9.23;8.27;;;;;;;16.51;85.50;101632.53;4915367;28;20131;-73
2023/09/09 00:25:48;;;;;;;9.30;6.80;;;;;;;16.50;85.01;101636.34;4902384;28;20027;-72
2023/09/09 00:28:14;;;;;;;9.25;6.78;;;;;;;16.49;85.15;101626.63;4881640;28;20122;-72
2023/09/09 00:30:41;;;;;;;9.88;7.93;;;;;;;16.49;85.17;101632.03;4903458;28;20031;-71
2023/09/09 00:33:09;;;;;;;9.75;6.68;;;;;;;16.46;85.76;101615.56;4909396;28;20043;-72
2023/09/09 00:35:38;;;;;;;9.25;7.88;;;;;;;16.46;86.27;101626.38;4911887;28;20043;-74
2023/09/09 00:38:08;;;;;;;9.63;8.70;;;;;;;16.43;86.71;101622.34;4898237;28;20500;-72
2023/09/09 00:40:35;;;;;;;9.80;8.25;;;;;;;16.44;86.77;101623.97;4880091;28;20574;-72
2023/09/09 00:43:00;;;;;;;8.70;6.88;;;;;;;16.44;86.15;101621.25;4915059;28;20039;-71
2023/09/09 00:45:27;;;;;;;8.90;8.00;;;;;;;16.46;86.49;101620.97;4891896;28;20123;-72
2023/09/09 00:47:53;;;;;;;10.02;7.18;;;;;;;16.46;86.02;101624.50;4898035;28;20052;-72
2023/09/09 00:50:20;;;;;;;10.05;8.77;;;;;;;16.47;86.06;101623.41;4920955;28;20572;-71
2023/09/09 00:52:46;;;;;;;7.75;6.95;;;;;;;16.48;85.36;101618.78;4898800;28;20074;-71
2023/09/09 00:55:12;;;;;;;9.95;8.45;;;;;;;16.47;85.66;101618.00;4916807;28;20044;-72
2023/09/09 00:57:38;;;;;;;10.00;8.93;;;;;;;16.45;85.74;101609.34;4917794;28;20043;-75
2023/09/09 01:00:11;;;;;;;10.18;7.80;;;;;;;16.45;85.19;101619.34;4919406;28;20035;-73
2023/09/09 01:02:41;;;;;;;8.90;7.80;;;;;;;16.42;85.46;101615.34;4900123;28;20202;-73
2023/09/09 01:05:07;;;;;;;10.23;8.07;;;;;;;16.40;85.94;101606.72;4919084;29;20043;-72
2023/09/09 01:07:43;;;;;;;8.40;7.07;;;;;;;16.38;85.40;101608.88;4907057;28;20035;-72
2023/09/09 01:10:09;;;;;;;10.65;7.47;;;;;;;16.36;85.76;101605.66;4898272;28;20058;-72
2023/09/09 01:12:35;;;;;;;9.85;7.68;;;;;;;16.33;85.80;101606.25;4902833;29;20048;-72
2023/09/09 01:15:01;;;;;;;8.55;7.75;;;;;;;16.29;85.86;101595.19;4924190;29;20040;-73
2023/09/09 01:17:27;;;;;;;10.10;7.20;;;;;;;16.27;86.16;101600.09;4919491;28;20040;-73
2023/09/09 01:19:55;;;;;;;7.97;7.07;;;;;;;16.26;86.01;101592.28;4886136;28;20047;-71
2023/09/09 01:22:21;;;;;;;9.25;8.20;;;;;;;16.28;86.40;101592.78;4920968;28;20048;-72
2023/09/09 01:24:47;;;;;;;8.65;7.40;;;;;;;16.29;86.29;101605.22;4972008;28;20070;-71
2023/09/09 01:27:14;;;;;;;8.63;6.90;;;;;;;16.28;85.69;101598.19;4903468;28;20043;-71
2023/09/09 01:29:40;;;;;;;7.93;7.00;;;;;;;16.26;85.83;101600.38;4901158;28;20031;-73
2023/09/09 01:32:06;;;;;;;10.23;7.47;;;;;;;16.22;86.43;101602.03;4919852;28;20055;-72
2023/09/09 01:34:32;;;;;;;9.32;8.25;;;;;;;16.21;86.16;101589.63;4891348;28;20681;-72
2023/09/09 01:36:57;;;;;;;10.38;8.25;;;;;;;16.19;86.20;101599.91;4923063;28;20497;-73
2023/09/09 01:39:24;;;;;;;;;;;;;;;16.18;86.45;101599.09;4903608;28;20090;-74
2023/09/09 01:41:49;;;;;;;8.52;6.72;;;;;;;16.16;86.17;101595.06;4898089;29;19919;-74
2023/09/09 01:44:15;;;;;;;;;;;;;;;16.15;87.03;101598.88;4893019;28;20040;-72
2023/09/09 01:46:41;;;;;;;10.93;7.85;;;;;;;16.11;86.58;101598.63;4906973;28;20352;-72
2023/09/09 01:49:07;;;;;;;9.50;8.35;;;;;;;16.10;86.90;101594.31;4922401;28;20054;-73
2023/09/09 01:51:34;;;;;;;9.80;8.40;;;;;;;16.10;85.96;101594.31;4884148;28;20505;-72
2023/09/09 01:53:59;;;;;;;9.18;8.25;;;;;;;16.08;86.64;101597.31;4885297;28;20036;-72
2023/09/09 01:56:25;;;;;;;9.40;7.97;;;;;;;16.05;85.93;101588.97;4905076;28;20050;-74
2023/09/09 01:58:50;;;;;;;9.30;8.40;;;;;;;16.03;86.07;101589.25;4891843;29;20070;-74
2023/09/09 02:01:16;;;;;;;8.85;7.78;;;;;;;16.01;86.17;101588.75;4918732;29;20032;-73
2023/09/09 02:03:41;;;;;;;9.23;7.82;;;;;;;15.99;86.18;101588.22;4906995;28;20509;-73
2023/09/09 02:06:07;;;;;;;9.05;7.32;;;;;;;16.02;86.52;101584.94;4918087;29;20063;-72
2023/09/09 02:08:33;;;;;;;9.48;7.43;;;;;;;16.00;86.40;101589.03;4900841;28;20036;-73
2023/09/09 02:10:58;;;;;;;;;;;;;;;16.00;86.82;101587.13;4904532;28;20032;-73
2023/09/09 02:13:24;;;;;;;9.18;8.05;;;;;;;15.98;86.31;101596.59;4902332;29;19965;-73
2023/09/09 02:15:49;;;;;;;8.88;7.90;;;;;;;15.96;86.17;101599.59;4922742;28;20031;-72
2023/09/09 02:18:15;;;;;;;10.27;8.63;;;;;;;15.96;86.62;101591.47;4919277;28;20039;-74
2023/09/09 02:20:41;;;;;;;9.10;8.20;;;;;;;15.95;86.48;101597.97;4907718;28;20027;-73
2023/09/09 02:23:07;;;;;;;11.77;8.35;;;;;;;15.91;86.65;101591.53;4923697;28;20085;-74
2023/09/09 02:25:33;;;;;;;9.88;8.88;;;;;;;15.89;86.84;101591.00;4900310;28;20042;-73
2023/09/09 02:27:59;;;;;;;11.63;9.27;;;;;;;15.87;87.14;101603.19;4908647;28;20047;-72
2023/09/09 02:30:24;;;;;;;;;;;;;;;15.86;86.77;101583.50;4892329;28;20070;-74
2023/09/09 02:32:50;;;;;;;8.20;6.80;;;;;;;15.82;86.60;101582.44;4904258;28;20454;-74
2023/09/09 02:35:15;;;;;;;9.77;8.30;;;;;;;15.80;86.27;101584.63;4905438;28;20513;-73
2023/09/09 02:37:41;;;;;;;;;;;;;;;15.78;86.67;101584.91;4908911;28;20035;-73
2023/09/09 02:40:09;;;;;;;8.85;7.95;;;;;;;15.74;86.45;101583.06;4904335;28;20007;-75
2023/09/09 02:42:36;;;;;;;9.18;7.15;;;;;;;15.73;86.42;101578.75;4935045;28;20082;-73
2023/09/09 02:45:02;;;;;;;9.85;8.85;;;;;;;15.68;87.16;101584.19;4905727;28;20135;-75
2023/09/09 02:47:28;;;;;;;9.30;8.32;;;;;;;15.66;87.17;101578.28;4896109;28;20047;-72
2023/09/09 02:49:54;;;;;;;;;;;;;;;15.65;87.50;101580.16;4898688;29;20032;-75
2023/09/09 02:52:19;;;;;;;9.30;8.40;;;;;;;15.60;87.50;101579.38;4886060;28;19962;-72
2023/09/09 02:54:45;;;;;;;;;;;;;;;15.60;87.20;101576.66;4916339;29;20036;-73
2023/09/09 02:57:12;;;;;;;11.00;6.88;;;;;;;15.55;86.82;101574.81;4897067;29;20467;-72
2023/09/09 02:59:37;;;;;;;9.90;8.32;;;;;;;15.51;87.79;101576.44;4895625;28;20040;-72
2023/09/09 03:02:06;;;;;;;11.77;8.63;;;;;;;15.55;87.81;101575.59;4884598;28;20048;-72
2023/09/09 03:04:32;;;;;;;11.18;8.18;;;;;;;15.55;87.27;101572.91;4901790;28;20044;-72
2023/09/09 03:06:58;;;;;;;;;;;;;;;15.60;87.97;101576.66;4907309;28;20047;-75
2023/09/09 03:09:25;;;;;;;11.23;10.13;;;;;;;15.53;88.06;101566.19;4914362;28;19941;-75
2023/09/09 03:11:53;;;;;;;10.65;8.65;;;;;;;15.51;88.10;101569.19;4916012;29;20040;-71
2023/09/09 03:14:20;;;;;;;11.48;10.38;;;;;;;15.49;88.12;101573.22;4918364;28;20043;-72
2023/09/09 03:16:46;;;;;;;9.35;7.72;;;;;;;15.48;87.41;101572.44;4908540;28;20098;-72
2023/09/09 03:19:11;;;;;;;;;;;;;;;15.51;87.98;101568.34;4890257;28;20040;-73
2023/09/09 03:21:37;;;;;;;9.07;7.55;;;;;;;15.47;87.70;101573.53;4918047;28;20545;-71
2023/09/09 03:24:03;;;;;;;;;;;;;;;15.47;87.94;101573.53;4905753;28;20554;-72
2023/09/09 03:26:32;;;;;;;10.00;8.38;;;;;;;15.43;87.08;101569.75;4897016;28;20032;-71
2023/09/09 03:28:59;;;;;;;9.45;8.43;;;;;;;15.42;87.17;101570.84;4919430;28;20148;-71
2023/09/09 03:31:25;;;;;;;10.77;8.50;;;;;;;15.37;87.28;101556.59;4912637;28;20063;-71
2023/09/09 03:33:50;;;;;;;;;;;;;;;15.37;87.55;101570.88;4922214;28;20040;-71
2023/09/09 03:36:16;;;;;;;10.13;8.23;;;;;;;15.32;88.03;101564.75;4915130;28;19927;-72
2023/09/09 03:38:42;;;;;;;10.07;8.98;;;;;;;15.32;87.45;101565.53;4884082;28;20046;-72
2023/09/09 03:41:08;;;;;;;;;;;;;;;15.30;87.88;101562.31;4918795;28;20047;-73
2023/09/09 03:43:36;;;;;;;10.85;7.85;;;;;;;15.26;87.69;101569.38;4887247;28;20769;-73
2023/09/09 03:46:02;;;;;;;10.23;8.05;;;;;;;15.23;87.70;101570.72;4913897;28;20039;-73
2023/09/09 03:48:29;;;;;;;10.18;9.07;;;;;;;15.18;87.53;101568.06;4895675;28;20048;-72
2023/09/09 03:50:59;;;;;;;8.80;7.80;;;;;;;15.15;87.71;101573.22;4882287;28;20040;-72
2023/09/09 03:53:25;;;;;;;9.35;7.38;;;;;;;15.10;87.64;101579.44;4890384;28;20036;-71
2023/09/09 03:55:51;;;;;;;12.75;9.60;;;;;;;15.06;88.18;101577.59;4915809;28;20079;-71
2023/09/09 03:58:16;;;;;;;;;;;;;;;15.02;88.12;101580.03;4900563;28;20075;-75
2023/09/09 04:00:44;;;;;;;10.43;8.48;;;;;;;14.98;87.87;101576.28;4880528;28;19930;-75
2023/09/09 04:03:10;;;;;;;11.10;7.97;;;;;;;14.95;88.22;101585.72;4904544;28;20083;-72
2023/09/09 04:05:35;;;;;;;;;;;;;;;14.94;89.08;101577.91;4890142;28;20563;-72
2023/09/09 04:08:03;;;;;;;9.52;8.48;;;;;;;14.88;89.17;101577.13;4898780;29;19926;-72
2023/09/09 04:10:29;;;;;;;12.10;10.10;;;;;;;14.87;89.45;101583.63;4896654;28;20822;-73
2023/09/09 04:12:55;;;;;;;;;;;;;;;14.85;89.92;101583.09;4930920;28;20145;-71
2023/09/09 04:15:20;;;;;;;10.75;9.55;;;;;;;14.82;90.02;101574.75;4897263;28;19919;-72
2023/09/09 04:17:46;;;;;;;;;;;;;;;14.84;90.32;101578.00;4921398;29;20040;-71
2023/09/09 04:20:12;;;;;;;10.30;9.18;;;;;;;14.81;90.18;101573.94;4903366;28;19969;-74
2023/09/09 04:22:38;;;;;;;10.73;9.55;;;;;;;14.82;89.83;101572.03;4896792;28;20040;-73
2023/09/09 04:25:04;;;;;;;;;;;;;;;14.84;89.56;101573.41;4907558;28;20039;-72
2023/09/09 04:27:31;;;;;;;11.15;10.05;;;;;;;14.82;90.14;101583.63;4921105;28;20002;-72
2023/09/09 04:29:58;;;;;;;11.18;9.00;;;;;;;14.82;89.47;101575.53;4892157;29;20038;-72
2023/09/09 04:32:24;;;;;;;11.25;10.10;;;;;;;14.83;90.20;101579.84;4907075;28;20031;-71
2023/09/09 04:34:49;;;;;;;;;;;;;;;14.82;90.29;101575.53;4920195;29;20035;-72
2023/09/09 04:37:16;;;;;;;11.25;8.90;;;;;;;14.78;90.07;101577.19;4918387;29;19968;-72
2023/09/09 04:39:41;;;;;;;;;;;;;;;14.81;90.29;101582.03;4912751;28;20035;-73
2023/09/09 04:42:07;;;;;;;11.30;9.25;;;;;;;14.78;90.43;101573.69;4906074;28;19965;-71
2023/09/09 04:44:33;;;;;;;;;;;;;;;14.78;90.01;101582.59;4900398;28;20119;-72
2023/09/09 04:46:58;;;;;;;11.68;10.40;;;;;;;14.74;89.89;101576.94;4900366;28;19918;-71
2023/09/09 04:49:24;;;;;;;;;;;;;;;14.75;90.07;101573.16;4905439;28;20122;-72
2023/09/09 04:51:50;;;;;;;9.90;8.63;;;;;;;14.72;89.97;101578.31;4920784;28;20030;-73
2023/09/09 04:54:18;;;;;;;;;;;;;;;14.74;90.02;101586.91;4920765;28;20126;-73
2023/09/09 04:56:44;;;;;;;8.70;7.05;;;;;;;14.70;89.68;101585.88;4911225;28;19930;-71
2023/09/09 04:59:09;;;;;;;11.95;8.55;;;;;;;14.69;89.35;101581.53;4903987;29;20189;-71
2023/09/09 05:01:35;;;;;;;;;;;;;;;14.69;90.07;101584.22;4906120;28;20556;-73
2023/09/09 05:04:01;;;;;;;9.77;7.75;;;;;;;14.67;89.93;101589.09;4918181;29;20772;-71
2023/09/09 05:06:27;;;;;;;12.52;11.23;;;;;;;14.66;90.32;101582.09;4907196;28;20803;-72
2023/09/09 05:08:53;;;;;;;;;;;;;;;14.68;90.10;101593.41;4912992;28;20041;-71
2023/09/09 05:11:19;;;;;;;12.32;10.25;;;;;;;14.67;90.36;101589.91;4923639;28;20005;-73
2023/09/09 05:13:45;;;;;;;11.85;10.65;;;;;;;14.71;90.51;101587.47;4917387;28;20031;-72
2023/09/09 05:16:10;;;;;;;;;;;;;;;14.74;90.60;101595.00;4904331;28;20082;-71
2023/09/09 05:18:36;;;;;;;12.57;9.95;;;;;;;14.71;90.27;101585.59;4893607;29;20377;-74
2023/09/09 05:21:02;;;;;;;11.43;9.90;;;;;;;14.75;90.24;101577.75;4924849;28;20040;-72
2023/09/09 05:23:27;;;;;;;;;;;;;;;14.80;90.34;101588.50;4919279;28;20048;-74
2023/09/09 05:25:53;;;;;;;11.23;8.63;;;;;;;14.80;90.54;101588.50;4895536;28;20384;-75
2023/09/09 05:28:20;;;;;;;11.45;9.43;;;;;;;14.83;89.96;101592.53;4914947;29;20036;-72
2023/09/09 05:30:45;;;;;;;14.40;11.20;;;;;;;14.86;90.33;101587.41;4892110;29;20051;-72
2023/09/09 05:33:11;;;;;;;;;;;;;;;14.93;90.22;101590.59;4901606;28;20055;-72
2023/09/09 05:35:38;;;;;;;12.68;10.60;;;;;;;14.93;90.08;101590.59;4906715;28;19926;-74
2023/09/09 05:38:04;;;;;;;;;;;;;;;14.99;90.37;101600.28;4916316;28;20040;-72
2023/09/09 05:40:30;;;;;;;11.40;9.18;;;;;;;15.00;90.04;101596.50;4896070;28;19962;-72
2023/09/09 05:42:55;;;;;;;;;;;;;;;15.11;90.02;101601.84;4922004;29;20047;-75
2023/09/09 05:45:21;;;;;;;13.13;9.00;;;;;;;15.13;89.72;101594.28;4891267;28;20892;-72
2023/09/09 05:47:48;;;;;;;10.15;8.52;;;;;;;15.17;89.91;101590.75;4919819;28;20032;-73
2023/09/09 05:50:14;;;;;;;;;;;;;;;15.23;89.82;101595.00;4902836;28;20048;-72
2023/09/09 05:52:40;;;;;;;10.38;9.20;;;;;;;15.22;89.53;101582.59;4901253;28;20466;-72
2023/09/09 05:55:08;;;;;;;10.25;8.63;;;;;;;15.29;89.50;101584.97;4908479;28;20125;-72
2023/09/09 05:57:34;;;;;;;12.38;10.18;;;;;;;15.36;89.17;101587.38;4919087;28;20051;-71
2023/09/09 06:00:02;;;;;;;;;;;;;;;15.46;88.96;101588.09;4898882;28;20044;-71
2023/09/09 06:02:39;;;;;;;11.85;9.50;;;;;;;15.55;88.62;101586.41;4917999;28;19941;-71
2023/09/09 06:05:06;;;;;;;9.10;8.02;;;;;;;15.63;88.18;101587.72;4935094;28;20047;-72
2023/09/09 06:07:34;;;;;;;12.20;9.75;;;;;;;15.73;88.13;101594.94;4904490;28;20051;-73
2023/09/09 06:10:00;;;;;;;;;;;;;;;15.82;88.21;101593.25;4900554;29;20036;-73
2023/09/09 06:12:26;;;;;;;13.27;9.45;;;;;;;15.96;86.53;101585.28;4918820;28;19919;-72
2023/09/09 06:14:52;;;;;;;14.18;9.40;;;;;;;16.10;85.61;101599.72;4899850;28;20042;-73
2023/09/09 06:17:18;;;;;;;;;;;;;;;16.23;84.79;101600.94;4901233;28;20044;-71
2023/09/09 06:19:43;;;;;;;10.98;8.32;;;;;;;16.33;84.29;101595.44;4885947;28;20131;-73
2023/09/09 06:22:09;;;;;;;;;;;;;;;16.47;84.09;101590.16;4887261;28;20131;-72
2023/09/09 06:24:35;;;;;;;11.13;7.97;;;;;;;16.55;83.73;101598.41;4914311;28;19969;-71
2023/09/09 06:27:01;;;;;;;;;;;;;;;16.64;83.81;101602.09;4902220;28;20035;-73
2023/09/09 06:29:28;;;;;;;12.10;9.02;;;;;;;16.73;83.40;101601.47;4914213;28;19941;-74
2023/09/09 06:31:54;;;;;;;11.57;9.10;;;;;;;16.82;83.03;101605.16;4899092;28;20044;-71
2023/09/09 06:34:19;;;;;;;;;;;;;;;16.93;83.09;101595.78;4914073;28;20040;-71
2023/09/09 06:36:45;;;;;;;12.05;8.25;;;;;;;17.01;81.89;101603.28;4918668;28;19967;-72
2023/09/09 06:39:11;;;;;;;;;;;;;;;17.10;82.30;101604.22;4892733;29;20118;-72
2023/09/09 06:41:37;;;;;;;11.77;8.90;;;;;;;17.16;81.58;101608.47;4919239;28;20025;-72
2023/09/09 06:44:03;;;;;;;10.10;8.77;;;;;;;17.24;81.21;101619.75;4921904;28;20125;-74
2023/09/09 06:46:29;;;;;;;10.15;8.65;;;;;;;17.30;80.78;101618.56;4901297;28;20047;-72
2023/09/09 06:48:54;;;;;;;9.30;7.88;;;;;;;17.32;79.81;101619.06;4921157;28;20036;-73
2023/09/09 06:51:20;;;;;;;11.10;8.95;;;;;;;17.41;80.30;101614.63;4913515;28;20048;-73
2023/09/09 06:53:46;;;;;;;10.30;7.93;;;;;;;17.50;79.97;101620.97;4900270;28;20036;-72
2023/09/09 06:56:11;;;;;;;10.07;8.63;;;;;;;17.60;80.10;101617.28;4918212;28;20162;-72
2023/09/09 06:58:37;;;;;;;13.98;10.05;;;;;;;17.68;79.67;101624.75;4888113;28;20849;-73
2023/09/09 07:01:03;;;;;;;8.90;7.63;;;;;;;17.76;79.46;101617.88;4917472;28;20051;-74
2023/09/09 07:03:29;;;;;;;11.65;8.60;;;;;;;17.83;79.50;101616.41;4921836;28;20043;-74
2023/09/09 07:05:58;;;;;;;8.98;8.07;;;;;;;17.91;79.45;101617.63;4890022;28;20035;-71
2023/09/09 07:08:24;;;;;;;11.35;9.25;;;;;;;18.03;79.54;101619.88;4918639;28;20051;-71
2023/09/09 07:10:51;;;;;;;12.13;7.75;;;;;;;18.08;79.78;101622.47;4912899;29;20113;-71
2023/09/09 07:13:17;;;;;;;10.63;8.13;;;;;;;18.16;79.26;101619.09;4912151;28;20059;-73
2023/09/09 07:15:42;;;;;;;10.23;9.20;;;;;;;18.27;78.37;101621.28;4900104;28;20086;-71
2023/09/09 07:18:08;;;;;;;14.60;9.82;;;;;;;18.35;77.86;101618.97;4921487;28;20071;-71
2023/09/09 07:20:34;;;;;;;;;;;;;;;18.43;77.54;101618.31;4917309;28;20051;-74
2023/09/09 07:22:59;;;;;;;11.25;8.93;;;;;;;18.49;77.75;101617.06;4886311;28;19949;-71
2023/09/09 07:25:25;;;;;;;11.50;9.63;;;;;;;18.53;77.61;101613.47;4917877;28;20123;-72
2023/09/09 07:27:51;;;;;;;11.48;8.23;;;;;;;18.63;76.51;101622.50;4879380;28;20342;-75
2023/09/09 07:30:18;;;;;;;9.43;7.95;;;;;;;18.73;76.27;101628.56;4914991;29;20058;-72
2023/09/09 07:32:44;;;;;;;11.40;9.50;;;;;;;18.81;75.29;101625.13;4906378;28;20098;-71
2023/09/09 07:35:10;;;;;;;11.48;8.52;;;;;;;18.89;75.06;101620.91;4884398;28;20043;-71
2023/09/09 07:37:35;;;;;;;9.48;8.57;;;;;;;18.96;75.32;101631.34;4909306;28;20070;-73
2023/09/09 07:40:01;;;;;;;9.50;8.50;;;;;;;19.05;74.41;101630.34;4918013;28;20074;-73
2023/09/09 07:42:27;;;;;;;10.25;8.90;;;;;;;19.15;74.82;101618.44;4905281;28;20071;-72
2023/09/09 07:44:53;;;;;;;10.73;9.05;;;;;;;19.21;75.07;101628.06;4891115;28;20509;-73
2023/09/09 07:47:20;;;;;;;10.40;8.77;;;;;;;19.32;74.19;101624.03;4895248;28;20040;-72
2023/09/09 07:49:46;;;;;;;11.95;8.73;;;;;;;19.43;74.23;101623.78;4911600;29;20517;-72
2023/09/09 07:52:12;;;;;;;10.55;9.45;;;;;;;19.49;73.42;101627.97;4904174;28;20051;-71
2023/09/09 07:54:38;;;;;;;13.52;9.85;;;;;;;19.54;73.29;101630.56;4876580;28;20054;-72
2023/09/09 07:57:04;;;;;;;9.63;8.65;;;;;;;19.55;73.69;101624.03;4918783;28;20071;-72
2023/09/09 07:59:30;;;;;;;9.73;8.18;;;;;;;19.66;73.27;101621.91;4897664;29;20534;-73
2023/09/09 08:01:56;;;;;;;9.25;8.10;;;;;;;19.75;73.38;101626.28;4882583;29;20077;-74
2023/09/09 08:04:22;;;;;;;11.75;9.00;;;;;;;19.82;73.12;101632.06;4918724;29;20147;-73
2023/09/09 08:06:53;;;;;;;10.20;9.18;;;;;;;19.93;72.54;101632.63;4915497;28;20040;-73
2023/09/09 08:09:23;;;;;;;10.85;8.73;;;;;;;20.06;72.34;101622.78;4918123;29;20040;-74
2023/09/09 08:11:48;;;;;;;10.13;8.93;;;;;;;20.17;72.11;101619.47;4885673;29;20044;-74
2023/09/09 08:14:15;;;;;;;10.23;8.52;;;;;;;20.27;71.83;101626.56;4883614;28;20044;-72
2023/09/09 08:16:41;;;;;;;13.20;10.30;;;;;;;20.33;71.96;101622.59;4904730;28;20051;-73
2023/09/09 08:19:07;;;;;;;10.45;9.38;;;;;;;20.41;71.72;101619.09;4913459;29;20040;-73
2023/09/09 08:21:33;;;;;;;10.43;8.98;;;;;;;20.49;71.25;101622.19;4907307;28;20043;-74
2023/09/09 08:24:00;;;;;;;9.93;8.85;;;;;;;20.52;70.58;101622.34;4917137;28;20040;-73
2023/09/09 08:26:25;;;;;;;11.70;9.50;;;;;;;20.62;71.10;101613.13;4923845;29;20040;-72
2023/09/09 08:28:51;;;;;;;11.10;9.93;;;;;;;20.74;71.14;101624.19;4916364;28;20044;-73
2023/09/09 08:31:16;;;;;;;11.45;8.82;;;;;;;20.84;71.44;101623.88;4917570;28;20047;-73
2023/09/09 08:33:42;;;;;;;10.70;9.48;;;;;;;20.97;71.09;101622.94;4907968;28;20126;-73
2023/09/09 08:36:08;;;;;;;12.05;9.43;;;;;;;21.05;70.91;101623.28;4905013;29;20048;-73
2023/09/09 08:38:33;;;;;;;13.60;9.90;;;;;;;21.17;70.67;101626.97;4901471;28;20401;-73
2023/09/09 08:41:39;;;;;;;9.15;8.25;;;;;;;21.27;70.05;101621.22;4893492;28;20032;-74
2023/09/09 08:44:44;;;;;;;11.50;8.57;;;;;;;21.44;69.89;101625.88;4954613;28;20051;-73
2023/09/09 08:47:10;;;;;;;9.25;7.85;;;;;;;21.53;69.05;101629.41;4906538;28;20043;-74
2023/09/09 08:49:38;;;;;;;8.80;7.45;;;;;;;21.68;68.57;101632.78;4910603;28;20040;-71
2023/09/09 08:52:12;;;;;;;12.10;7.85;;;;;;;21.73;68.05;101632.59;4920995;28;20036;-73
2023/09/09 08:54:38;;;;;;;9.02;7.88;;;;;;;21.84;68.06;101633.84;4920448;28;20043;-74
2023/09/09 08:57:04;;;;;;;9.18;7.85;;;;;;;21.91;68.00;101636.88;4918272;28;20071;-74
2023/09/09 08:59:31;;;;;;;9.93;7.95;;;;;;;21.98;68.25;101639.91;4903017;28;20122;-74
2023/09/09 09:01:58;;;;;;;9.07;6.88;;;;;;;22.10;68.17;101641.22;4923551;28;20552;-72
2023/09/09 09:04:25;;;;;;;10.73;8.20;;;;;;;22.21;66.73;101636.97;4920210;28;20039;-72
2023/09/09 09:06:52;;;;;;;10.43;8.30;;;;;;;22.29;66.84;101630.72;4920997;28;20036;-73
2023/09/09 09:09:18;;;;;;;9.80;8.38;;;;;;;22.37;66.70;101629.88;4905236;28;20055;-73
2023/09/09 09:11:44;;;;;;;11.98;9.20;;;;;;;22.46;66.06;101627.09;4906983;28;20619;-74
2023/09/09 09:14:10;;;;;;;8.98;7.25;;;;;;;22.57;66.63;101629.13;4914554;28;20047;-72
2023/09/09 09:16:42;;;;;;;11.23;6.88;;;;;;;22.66;65.92;101626.34;4927191;28;20393;-74
2023/09/09 09:19:36;;;;;;;8.63;7.53;;;;;;;22.74;65.47;101624.69;4912207;28;20071;-74
2023/09/09 09:22:02;;;;;;;9.93;7.53;;;;;;;22.83;65.63;101623.53;4922846;28;20546;-72
2023/09/09 09:24:28;;;;;;;7.85;7.07;;;;;;;22.89;65.93;101621.41;4917880;29;20040;-73
2023/09/09 09:26:56;;;;;;;10.32;8.30;;;;;;;23.00;65.84;101619.88;4901570;28;20074;-72
2023/09/09 09:29:22;;;;;;;9.98;7.70;;;;;;;23.08;64.84;101620.94;4922840;28;20052;-71
2023/09/09 09:31:53;;;;;;;9.35;7.57;;;;;;;23.20;65.45;101617.50;4915887;29;20054;-75
2023/09/09 09:34:20;;;;;;;7.45;6.60;;;;;;;23.34;64.98;101623.47;4907926;28;20529;-74
2023/09/09 09:36:46;;;;;;;9.88;7.20;;;;;;;23.40;63.69;101617.47;4924946;28;20397;-73
2023/09/09 09:39:12;;;;;;;11.60;7.65;;;;;;;23.47;64.19;101611.47;4920249;28;20075;-73
2023/09/09 09:41:43;;;;;;;10.48;7.50;;;;;;;23.56;64.87;101614.91;4919197;28;20074;-71
2023/09/09 09:44:19;;;;;;;10.85;7.78;;;;;;;23.69;63.58;101611.09;4912127;28;20039;-76
2023/09/09 09:47:03;;;;;;;8.70;7.78;;;;;;;23.85;64.36;101615.97;4925859;28;20116;-74
2023/09/09 09:49:32;;;;;;;;;;;;;;;23.95;63.95;101605.38;4900608;28;20042;-73
2023/09/09 09:51:57;;;;;;;10.25;6.75;;;;;;;24.05;63.06;101608.78;4889939;28;19923;-73
2023/09/09 09:54:23;;;;;;;11.27;7.50;;;;;;;24.13;64.05;101614.19;4923786;29;20779;-72
2023/09/09 09:56:49;;;;;;;8.57;7.68;;;;;;;24.27;63.06;101610.31;4905243;28;20117;-71
2023/09/09 09:59:15;;;;;;;9.70;7.65;;;;;;;24.35;62.85;101596.53;4917995;28;20047;-73
2023/09/09 10:01:41;;;;;;;10.63;7.22;;;;;;;24.44;62.66;101599.94;4916932;28;20504;-72
2023/09/09 10:04:09;;;;;;;9.73;6.18;;;;;;;24.51;61.56;101613.06;4930666;28;20034;-73
2023/09/09 10:06:38;;;;;;;7.60;6.43;;;;;;;24.60;62.39;101602.81;4917054;28;20534;-75
2023/09/09 10:09:19;;;;;;;6.97;6.28;;;;;;;24.74;60.89;101605.97;4899111;28;20036;-74
2023/09/09 10:11:57;;;;;;;7.78;6.97;;;;;;;24.87;60.84;101600.47;4918880;28;20110;-73
2023/09/09 10:14:26;;;;;;;7.97;6.65;;;;;;;24.95;61.08;101596.81;4915131;28;20051;-75
2023/09/09 10:16:56;;;;;;;9.15;7.03;;;;;;;25.05;61.06;101593.59;4904859;28;20044;-73
2023/09/09 10:19:22;;;;;;;7.55;6.75;;;;;;;25.21;60.07;101594.47;4921884;29;20044;-72
2023/09/09 10:21:50;;;;;;;15.07;7.25;;;;;;;25.29;60.30;101596.25;4919679;29;20040;-72
2023/09/09 10:24:17;;;;;;;10.95;6.78;;;;;;;25.42;61.24;101607.19;4913712;28;20044;-72
2023/09/09 10:26:44;;;;;;;7.95;6.85;;;;;;;25.52;59.27;101601.97;4918626;28;20042;-72
2023/09/09 10:29:11;;;;;;;8.23;6.45;;;;;;;25.59;59.23;101596.69;4916883;28;20051;-71
2023/09/09 10:31:38;;;;;;;9.00;6.80;;;;;;;25.69;58.94;101592.63;4889497;28;20087;-73
2023/09/09 10:34:05;;;;;;;10.07;6.65;;;;;;;25.74;59.14;101595.16;4901489;29;20452;-73
2023/09/09 10:36:35;;;;;;;8.05;6.88;;;;;;;25.79;59.88;101597.63;4915142;28;20125;-72
2023/09/09 10:39:01;;;;;;;8.15;6.45;;;;;;;25.90;58.10;101594.38;4902236;28;20048;-72
2023/09/09 10:41:27;;;;;;;8.00;6.43;;;;;;;25.97;58.11;101600.03;4924185;28;20028;-72
2023/09/09 10:43:52;;;;;;;9.50;7.03;;;;;;;26.03;57.69;101599.41;4917757;28;20106;-73
2023/09/09 10:46:32;;;;;;;6.78;6.18;;;;;;;26.10;58.02;101601.56;4911861;28;20027;-73
2023/09/09 10:49:03;;;;;;;8.27;5.82;;;;;;;26.15;56.81;101595.81;4905971;28;20538;-72
2023/09/09 10:51:47;;;;;;;7.05;6.35;;;;;;;26.31;57.17;101596.56;4916018;29;20044;-71
2023/09/09 10:54:15;;;;;;;8.45;6.30;;;;;;;26.44;58.50;101599.25;4915929;28;20042;-73
2023/09/09 10:56:47;;;;;;;11.02;6.22;;;;;;;26.55;57.32;101590.09;4905377;28;20075;-71
2023/09/09 10:59:22;;;;;;;8.63;6.53;;;;;;;26.65;57.35;101588.75;4900599;29;20047;-73
2023/09/09 11:02:08;;;;;;;7.18;6.07;;;;;;;26.78;56.32;101583.94;4916125;28;20070;-71
2023/09/09 11:04:36;;;;;;;5.82;5.25;;;;;;;26.85;56.07;101582.13;4919825;28;20066;-70
2023/09/09 11:07:13;;;;;;;7.10;6.28;;;;;;;26.92;56.00;101587.78;4914943;29;20054;-72
2023/09/09 11:09:49;;;;;;;8.75;6.60;;;;;;;27.01;55.04;101584.81;4883152;28;20040;-73
2023/09/09 11:12:16;;;;;;;8.00;6.50;;;;;;;27.13;56.26;101578.41;4901902;29;20036;-72
2023/09/09 11:14:56;;;;;;;7.95;6.75;;;;;;;27.23;55.87;101577.81;4902489;28;20043;-74
2023/09/09 11:17:22;;;;;;;9.60;6.15;;;;;;;27.32;54.48;101583.88;4920297;28;20040;-74
2023/09/09 11:19:48;;;;;;;7.78;5.95;;;;;;;27.44;56.41;101575.47;4917696;28;20047;-73
2023/09/09 11:22:14;;;;;;;7.18;6.38;;;;;;;27.51;54.29;101580.31;4919370;29;20056;-73
2023/09/09 11:24:40;;;;;;;6.55;5.78;;;;;;;27.57;54.04;101572.53;4905286;28;20920;-74
2023/09/09 11:27:07;;;;;;;8.10;6.47;;;;;;;27.59;54.35;101562.00;4910083;28;20035;-71
2023/09/09 11:29:32;;;;;;;8.20;6.35;;;;;;;27.74;55.15;101567.41;4921267;28;20658;-72